New Richmond Regional Airport
KRNH : now visible

Airfield :











YOU CAN JOIN US ON...

 
LOGIN :

Register | Disclaimer

   EN    FR    IT 

 









Legend :    VFR   Marginal VFR   IFR   Intensive IFR   Very Intensive IFR
Visi :
Ceiling :
>= 8 km
>= 3000ft
5 to 8 km
1000 to 3000 ft
1500m to 5 km
500 to 1000 ft
800 to 1500m
200 to 500 ft
< 800m
< 200 ft
Symbols :   Thunderstorms  Fog  Heavy snow  Heavy precipitations  Wind > 20 kt






- Airport Elevation : 998 ft


KRNH - New Richmond Regional

CURRENT METAR :
  • 251635Z AUTO 28008KT 10SM CLR 00/M06 A3030 RMK AO2 T10011062

EXPIRED METARs :
  • 251615Z AUTO 27008KT 10SM CLR M01/M06 A3030 RMK AO2 T10061061
  • 251555Z AUTO 27007KT 10SM CLR M01/M06 A3029 RMK AO2 T10101062
  • 251535Z AUTO 27008KT 10SM CLR M01/M06 A3030 RMK AO2 T10141061
  • 251515Z AUTO 27007KT 10SM CLR M02/M06 A3030 RMK AO2 T10171062
  • 251455Z AUTO 27003KT 10SM CLR M02/M06 A3030 RMK AO2 T10221056
  • 251435Z AUTO 27007KT 10SM CLR M03/M06 A3029 RMK AO2 T10301057
  • 251415Z AUTO 25006KT 10SM CLR M04/M06 A3029 RMK AO2 T10361057
  • 251355Z AUTO 25006KT 10SM CLR M04/M06 A3028 RMK AO2 T10411059

TAF KRNH
Valid from the 25 at 12:00 until the 26 at 12:00 UTC


251129Z 2512/2612 25009KT P6SM SKC
FM260000 20005KT P6SM SKC
KZMP FIR / North America



MET'MAP, your aeronautical weather chart ! - Copyright ORBIFLY December 2007 - Disclaimer

ORBIFLY MET'MAP TEAM :

Programming & Development : Alexandra Zaïnal
Concept & original design : Baudouin d'Aumeries
Assistance for programming : Marc-Olivier Méhu
Technical & hardware support : Manuel Goepfert

Contact : metmap@orbifly.com




SOURCES & CREDITS :

   NOAA       Earth
Advisory